Just Grey — CRA7069 — position and weather

sailwx.info

Track history (hours):
 
Tides and Currents Weather Stations Pressure Air Temp Water Temp Dewpoint Dewpoint Depression Visibility Wind Speed Wind Dir Waves Ship Positions

Just Grey

Last reported at 2017-Oct-10 12:21 UTC. Time now 2017-Nov-24 13:06 UTC.
Position N 37°07' W 008°40'.
Warning: this ship's position is 45 days out of date.

Length 9 m.

Type: Sailing vessel. MMSI: 263958773.

Date/timePositionNaut miles runAvg speedWind from/ knotsBaromVisibWave heightAir tempDewpointWater temp
2017-Oct-10 12:21N 37°07' W 008°40'1 2.4
2017-Oct-10 11:59N 37°06' W 008°40'2 4.0
2017-Oct-10 11:27N 37°04' W 008°42'2 3.4
2017-Oct-10 10:58N 37°03' W 008°43'3 1.7
2017-Oct-10 09:16N 37°05' W 008°40'1 4.7
2017-Oct-10 09:00N 37°06' W 008°40'  
2017-Oct-03 16:10N 37°07' W 008°31'0 0.0
2017-Oct-03 15:52N 37°07' W 008°31'0 0.0
2017-Oct-03 14:40N 37°07' W 008°31'0 0.0
2017-Oct-03 13:04N 37°07' W 008°31'0 0.0
2017-Oct-03 12:40N 37°07' W 008°31'0 0.0
2017-Oct-03 12:28N 37°07' W 008°31'0 0.0
2017-Oct-03 11:55N 37°07' W 008°31'1 1.7
2017-Oct-03 11:29N 37°06' W 008°32'2 4.0
2017-Oct-03 10:58N 37°06' W 008°35'2 4.2
2017-Oct-03 10:30N 37°06' W 008°37'2 3.8
2017-Oct-03 10:00N 37°06' W 008°40'  
Track history (hours):
 
Tides and Currents Weather Stations Pressure Air Temp Water Temp Dewpoint Dewpoint Depression Visibility Wind Speed Wind Dir Waves Ship Positions

Just Grey

Last reported at 2017-Oct-10 12:21 UTC. Time now 2017-Nov-24 13:06 UTC.
Position N 37°07' W 008°40'.
Warning: this ship's position is 45 days out of date.

Length 9 m.

Type: Sailing vessel. MMSI: 263958773.

Date/timePositionNaut miles runAvg speedWind from/ knotsBaromVisibWave heightAir tempDewpointWater temp
2017-Oct-10 12:21N 37°07' W 008°40'1 2.4
2017-Oct-10 11:59N 37°06' W 008°40'2 4.0
2017-Oct-10 11:27N 37°04' W 008°42'2 3.4
2017-Oct-10 10:58N 37°03' W 008°43'3 1.7
2017-Oct-10 09:16N 37°05' W 008°40'1 4.7
2017-Oct-10 09:00N 37°06' W 008°40'  
2017-Oct-03 16:10N 37°07' W 008°31'0 0.0
2017-Oct-03 15:52N 37°07' W 008°31'0 0.0
2017-Oct-03 14:40N 37°07' W 008°31'0 0.0
2017-Oct-03 13:04N 37°07' W 008°31'0 0.0
2017-Oct-03 12:40N 37°07' W 008°31'0 0.0
2017-Oct-03 12:28N 37°07' W 008°31'0 0.0
2017-Oct-03 11:55N 37°07' W 008°31'1 1.7
2017-Oct-03 11:29N 37°06' W 008°32'2 4.0
2017-Oct-03 10:58N 37°06' W 008°35'2 4.2
2017-Oct-03 10:30N 37°06' W 008°37'2 3.8
2017-Oct-03 10:00N 37°06' W 008°40'  

Dump ship's entire track history